sensor_id;sensor_type;location;lat;lon;timestamp;temperature;humidity
64599;SHT31;51008;51.504;11.548;2022-09-17T00:02:13;11.04;81.77
64599;SHT31;51008;51.504;11.548;2022-09-17T00:07:14;11.01;82.39
64599;SHT31;51008;51.504;11.548;2022-09-17T00:12:15;10.99;82.57
64599;SHT31;51008;51.504;11.548;2022-09-17T00:17:16;10.96;82.56
64599;SHT31;51008;51.504;11.548;2022-09-17T00:22:17;10.92;82.69
64599;SHT31;51008;51.504;11.548;2022-09-17T00:27:18;10.87;83.16
64599;SHT31;51008;51.504;11.548;2022-09-17T00:32:19;10.89;83.14
64599;SHT31;51008;51.504;11.548;2022-09-17T00:37:20;10.97;83.21
64599;SHT31;51008;51.504;11.548;2022-09-17T00:42:22;10.94;83.48
64599;SHT31;51008;51.504;11.548;2022-09-17T00:47:29;10.99;83.83
64599;SHT31;51008;51.504;11.548;2022-09-17T00:52:35;10.94;83.85
64599;SHT31;51008;51.504;11.548;2022-09-17T00:57:37;10.97;83.83
64599;SHT31;51008;51.504;11.548;2022-09-17T01:02:40;10.93;84.00
64599;SHT31;51008;51.504;11.548;2022-09-17T01:13:08;10.90;84.66
64599;SHT31;51008;51.504;11.548;2022-09-17T01:18:33;10.79;84.91
64599;SHT31;51008;51.504;11.548;2022-09-17T01:24:05;10.62;85.36
64599;SHT31;51008;51.504;11.548;2022-09-17T01:35:00;10.46;86.68
64599;SHT31;51008;51.504;11.548;2022-09-17T01:40:18;10.41;87.06
64599;SHT31;51008;51.504;11.548;2022-09-17T01:50:29;10.42;87.32
64599;SHT31;51008;51.504;11.548;2022-09-17T01:55:35;10.46;87.28
64599;SHT31;51008;51.504;11.548;2022-09-17T02:00:39;10.49;87.48
64599;SHT31;51008;51.504;11.548;2022-09-17T02:05:48;10.50;87.27
64599;SHT31;51008;51.504;11.548;2022-09-17T02:11:15;10.50;87.44
64599;SHT31;51008;51.504;11.548;2022-09-17T02:16:20;10.62;87.17
64599;SHT31;51008;51.504;11.548;2022-09-17T02:26:44;10.65;87.01
64599;SHT31;51008;51.504;11.548;2022-09-17T02:31:46;10.72;87.22
64599;SHT31;51008;51.504;11.548;2022-09-17T02:36:47;10.66;87.61
64599;SHT31;51008;51.504;11.548;2022-09-17T02:58:12;10.63;90.29
64599;SHT31;51008;51.504;11.548;2022-09-17T03:03:22;10.53;90.92
64599;SHT31;51008;51.504;11.548;2022-09-17T03:08:33;10.49;91.58
64599;SHT31;51008;51.504;11.548;2022-09-17T03:13:38;10.44;91.86
64599;SHT31;51008;51.504;11.548;2022-09-17T03:18:39;10.52;91.78
64599;SHT31;51008;51.504;11.548;2022-09-17T03:23:40;10.53;91.52
64599;SHT31;51008;51.504;11.548;2022-09-17T03:28:41;10.55;91.60
64599;SHT31;51008;51.504;11.548;2022-09-17T03:33:42;10.50;92.10
64599;SHT31;51008;51.504;11.548;2022-09-17T03:38:43;10.52;92.62
64599;SHT31;51008;51.504;11.548;2022-09-17T03:43:44;10.58;92.73
64599;SHT31;51008;51.504;11.548;2022-09-17T03:48:45;10.48;93.09
64599;SHT31;51008;51.504;11.548;2022-09-17T03:53:46;10.48;93.29
64599;SHT31;51008;51.504;11.548;2022-09-17T03:58:47;10.39;93.37
64599;SHT31;51008;51.504;11.548;2022-09-17T04:03:48;10.46;93.32
64599;SHT31;51008;51.504;11.548;2022-09-17T04:08:49;10.52;93.09
64599;SHT31;51008;51.504;11.548;2022-09-17T04:13:50;10.49;93.02
64599;SHT31;51008;51.504;11.548;2022-09-17T04:18:51;10.44;92.75
64599;SHT31;51008;51.504;11.548;2022-09-17T04:23:52;10.42;92.33
64599;SHT31;51008;51.504;11.548;2022-09-17T04:28:53;10.37;92.81
64599;SHT31;51008;51.504;11.548;2022-09-17T04:33:54;10.38;93.08
64599;SHT31;51008;51.504;11.548;2022-09-17T04:38:55;10.45;92.97
64599;SHT31;51008;51.504;11.548;2022-09-17T04:43:56;10.48;92.59
64599;SHT31;51008;51.504;11.548;2022-09-17T04:48:57;10.46;92.44
64599;SHT31;51008;51.504;11.548;2022-09-17T04:53:58;10.32;92.81
64599;SHT31;51008;51.504;11.548;2022-09-17T04:58:59;10.34;92.93
64599;SHT31;51008;51.504;11.548;2022-09-17T05:04:00;10.37;93.00
64599;SHT31;51008;51.504;11.548;2022-09-17T05:09:02;10.31;92.60
64599;SHT31;51008;51.504;11.548;2022-09-17T05:14:02;10.34;92.99
64599;SHT31;51008;51.504;11.548;2022-09-17T05:19:03;10.41;92.60
64599;SHT31;51008;51.504;11.548;2022-09-17T05:24:04;10.38;92.39
64599;SHT31;51008;51.504;11.548;2022-09-17T05:29:05;10.30;92.19
64599;SHT31;51008;51.504;11.548;2022-09-17T05:34:07;10.27;92.28
64599;SHT31;51008;51.504;11.548;2022-09-17T05:39:08;10.30;92.25
64599;SHT31;51008;51.504;11.548;2022-09-17T05:44:09;10.38;92.18
64599;SHT31;51008;51.504;11.548;2022-09-17T05:49:10;10.56;92.19
64599;SHT31;51008;51.504;11.548;2022-09-17T05:54:11;10.73;91.26
64599;SHT31;51008;51.504;11.548;2022-09-17T05:59:12;10.79;90.25
64599;SHT31;51008;51.504;11.548;2022-09-17T06:04:13;10.81;89.74
64599;SHT31;51008;51.504;11.548;2022-09-17T06:09:14;10.72;88.90
64599;SHT31;51008;51.504;11.548;2022-09-17T06:14:15;10.92;88.56
64599;SHT31;51008;51.504;11.548;2022-09-17T06:19:16;11.27;88.42
64599;SHT31;51008;51.504;11.548;2022-09-17T06:24:17;11.49;86.72
64599;SHT31;51008;51.504;11.548;2022-09-17T06:29:19;11.69;85.42
64599;SHT31;51008;51.504;11.548;2022-09-17T06:34:20;12.00;84.36
64599;SHT31;51008;51.504;11.548;2022-09-17T06:39:21;12.22;84.28
64599;SHT31;51008;51.504;11.548;2022-09-17T06:44:22;12.39;83.34
64599;SHT31;51008;51.504;11.548;2022-09-17T06:49:23;12.72;81.52
64599;SHT31;51008;51.504;11.548;2022-09-17T06:54:24;12.90;79.78
64599;SHT31;51008;51.504;11.548;2022-09-17T06:59:25;13.39;76.43
64599;SHT31;51008;51.504;11.548;2022-09-17T07:04:26;14.05;74.92
64599;SHT31;51008;51.504;11.548;2022-09-17T07:09:27;14.35;74.81
64599;SHT31;51008;51.504;11.548;2022-09-17T07:14:28;14.77;73.32
64599;SHT31;51008;51.504;11.548;2022-09-17T07:19:29;14.32;71.12
64599;SHT31;51008;51.504;11.548;2022-09-17T07:24:30;14.14;72.21
64599;SHT31;51008;51.504;11.548;2022-09-17T07:29:31;13.94;71.26
64599;SHT31;51008;51.504;11.548;2022-09-17T07:34:32;13.90;71.81
64599;SHT31;51008;51.504;11.548;2022-09-17T07:39:33;14.49;71.64
64599;SHT31;51008;51.504;11.548;2022-09-17T07:44:34;14.81;70.33
64599;SHT31;51008;51.504;11.548;2022-09-17T07:49:35;14.80;67.96
64599;SHT31;51008;51.504;11.548;2022-09-17T07:54:36;14.45;68.29
64599;SHT31;51008;51.504;11.548;2022-09-17T07:59:36;14.36;67.40
64599;SHT31;51008;51.504;11.548;2022-09-17T08:04:37;14.10;67.16
64599;SHT31;51008;51.504;11.548;2022-09-17T08:09:38;14.17;67.82
64599;SHT31;51008;51.504;11.548;2022-09-17T08:14:39;14.19;68.30
64599;SHT31;51008;51.504;11.548;2022-09-17T08:19:40;14.01;68.73
64599;SHT31;51008;51.504;11.548;2022-09-17T08:24:41;13.94;67.91
64599;SHT31;51008;51.504;11.548;2022-09-17T08:29:42;13.93;68.05
64599;SHT31;51008;51.504;11.548;2022-09-17T08:34:43;14.17;66.88
64599;SHT31;51008;51.504;11.548;2022-09-17T08:39:44;14.21;66.72
64599;SHT31;51008;51.504;11.548;2022-09-17T08:44:45;14.18;65.94
64599;SHT31;51008;51.504;11.548;2022-09-17T08:49:55;14.28;64.83
64599;SHT31;51008;51.504;11.548;2022-09-17T09:00:15;14.62;65.52
64599;SHT31;51008;51.504;11.548;2022-09-17T09:05:19;14.88;66.63
64599;SHT31;51008;51.504;11.548;2022-09-17T09:10:25;15.40;68.34
64599;SHT31;51008;51.504;11.548;2022-09-17T09:20:52;14.33;67.85
64599;SHT31;51008;51.504;11.548;2022-09-17T09:26:33;14.24;69.91
64599;SHT31;51008;51.504;11.548;2022-09-17T09:31:33;14.12;70.90
64599;SHT31;51008;51.504;11.548;2022-09-17T09:36:38;14.04;70.24
64599;SHT31;51008;51.504;11.548;2022-09-17T09:41:45;14.17;65.12
64599;SHT31;51008;51.504;11.548;2022-09-17T09:52:10;13.59;72.82
64599;SHT31;51008;51.504;11.548;2022-09-17T09:57:16;13.26;72.70
64599;SHT31;51008;51.504;11.548;2022-09-17T10:02:18;13.70;73.85
64599;SHT31;51008;51.504;11.548;2022-09-17T10:07:19;15.35;67.46
64599;SHT31;51008;51.504;11.548;2022-09-17T10:12:20;16.38;62.69
64599;SHT31;51008;51.504;11.548;2022-09-17T10:17:23;15.80;61.11
64599;SHT31;51008;51.504;11.548;2022-09-17T10:22:29;15.63;60.73
64599;SHT31;51008;51.504;11.548;2022-09-17T10:27:31;14.83;60.76
64599;SHT31;51008;51.504;11.548;2022-09-17T10:32:32;14.60;62.28
64599;SHT31;51008;51.504;11.548;2022-09-17T10:37:44;16.08;58.40
64599;SHT31;51008;51.504;11.548;2022-09-17T10:42:47;16.36;56.59
64599;SHT31;51008;51.504;11.548;2022-09-17T10:47:49;15.93;54.10
64599;SHT31;51008;51.504;11.548;2022-09-17T10:52:52;16.25;57.54
64599;SHT31;51008;51.504;11.548;2022-09-17T10:57:57;17.37;54.42
64599;SHT31;51008;51.504;11.548;2022-09-17T11:09:18;17.50;47.34
64599;SHT31;51008;51.504;11.548;2022-09-17T11:25:23;18.77;48.03
64599;SHT31;51008;51.504;11.548;2022-09-17T11:30:32;18.57;47.06
64599;SHT31;51008;51.504;11.548;2022-09-17T11:35:46;17.64;50.22
64599;SHT31;51008;51.504;11.548;2022-09-17T11:41:15;17.92;52.44
64599;SHT31;51008;51.504;11.548;2022-09-17T11:46:20;18.33;49.52
64599;SHT31;51008;51.504;11.548;2022-09-17T11:51:31;17.84;51.37
64599;SHT31;51008;51.504;11.548;2022-09-17T11:56:40;18.17;51.29
64599;SHT31;51008;51.504;11.548;2022-09-17T12:01:53;18.15;48.65
64599;SHT31;51008;51.504;11.548;2022-09-17T12:12:21;18.69;50.93
64599;SHT31;51008;51.504;11.548;2022-09-17T12:17:30;18.16;49.83
64599;SHT31;51008;51.504;11.548;2022-09-17T12:22:37;17.89;50.78
64599;SHT31;51008;51.504;11.548;2022-09-17T12:27:59;17.36;52.11
64599;SHT31;51008;51.504;11.548;2022-09-17T12:33:12;17.05;52.96
64599;SHT31;51008;51.504;11.548;2022-09-17T12:38:47;17.18;56.47
64599;SHT31;51008;51.504;11.548;2022-09-17T12:44:02;16.63;51.95
64599;SHT31;51008;51.504;11.548;2022-09-17T12:49:33;15.77;54.76
64599;SHT31;51008;51.504;11.548;2022-09-17T13:00:07;15.71;49.30
64599;SHT31;51008;51.504;11.548;2022-09-17T13:05:52;16.33;48.06
64599;SHT31;51008;51.504;11.548;2022-09-17T13:16:06;16.30;48.57
64599;SHT31;51008;51.504;11.548;2022-09-17T13:21:13;16.63;48.59
64599;SHT31;51008;51.504;11.548;2022-09-17T13:26:19;16.60;48.90
64599;SHT31;51008;51.504;11.548;2022-09-17T13:31:45;16.61;48.05
64599;SHT31;51008;51.504;11.548;2022-09-17T13:36:50;16.71;48.99
64599;SHT31;51008;51.504;11.548;2022-09-17T13:42:01;16.63;50.26
64599;SHT31;51008;51.504;11.548;2022-09-17T13:47:16;15.43;45.53
64599;SHT31;51008;51.504;11.548;2022-09-17T13:52:30;13.49;54.73
64599;SHT31;51008;51.504;11.548;2022-09-17T13:57:43;13.80;56.65
64599;SHT31;51008;51.504;11.548;2022-09-17T14:02:45;14.85;49.72
64599;SHT31;51008;51.504;11.548;2022-09-17T14:07:46;15.63;49.65
64599;SHT31;51008;51.504;11.548;2022-09-17T14:12:49;15.80;51.51
64599;SHT31;51008;51.504;11.548;2022-09-17T14:17:51;15.66;51.85
64599;SHT31;51008;51.504;11.548;2022-09-17T14:22:56;15.54;53.92
64599;SHT31;51008;51.504;11.548;2022-09-17T14:28:02;15.22;53.24
64599;SHT31;51008;51.504;11.548;2022-09-17T14:33:16;14.83;54.19
64599;SHT31;51008;51.504;11.548;2022-09-17T14:38:51;14.76;52.81
64599;SHT31;51008;51.504;11.548;2022-09-17T14:44:02;14.73;55.85
64599;SHT31;51008;51.504;11.548;2022-09-17T14:49:23;14.02;62.91
64599;SHT31;51008;51.504;11.548;2022-09-17T14:54:25;13.77;65.82
64599;SHT31;51008;51.504;11.548;2022-09-17T15:04:33;13.66;68.31
64599;SHT31;51008;51.504;11.548;2022-09-17T15:09:34;13.62;68.76
64599;SHT31;51008;51.504;11.548;2022-09-17T15:14:37;13.67;68.97
64599;SHT31;51008;51.504;11.548;2022-09-17T15:19:41;13.65;66.63
64599;SHT31;51008;51.504;11.548;2022-09-17T15:30:01;13.80;66.96
64599;SHT31;51008;51.504;11.548;2022-09-17T15:40:30;13.85;67.16
64599;SHT31;51008;51.504;11.548;2022-09-17T15:45:33;13.76;65.42
64599;SHT31;51008;51.504;11.548;2022-09-17T15:50:49;13.26;66.48
64599;SHT31;51008;51.504;11.548;2022-09-17T16:01:30;12.53;69.83
64599;SHT31;51008;51.504;11.548;2022-09-17T16:06:35;12.43;69.65
64599;SHT31;51008;51.504;11.548;2022-09-17T16:11:36;12.55;69.88
64599;SHT31;51008;51.504;11.548;2022-09-17T16:16:37;12.64;69.85
64599;SHT31;51008;51.504;11.548;2022-09-17T16:21:38;12.77;68.57
64599;SHT31;51008;51.504;11.548;2022-09-17T16:26:39;12.76;69.00
64599;SHT31;51008;51.504;11.548;2022-09-17T16:31:40;12.72;67.86
64599;SHT31;51008;51.504;11.548;2022-09-17T16:36:41;12.02;75.50
64599;SHT31;51008;51.504;11.548;2022-09-17T16:41:42;11.04;77.63
64599;SHT31;51008;51.504;11.548;2022-09-17T16:46:43;10.77;78.15
64599;SHT31;51008;51.504;11.548;2022-09-17T16:51:44;10.65;79.60
64599;SHT31;51008;51.504;11.548;2022-09-17T16:56:45;10.60;80.33
64599;SHT31;51008;51.504;11.548;2022-09-17T17:01:46;10.52;79.59
64599;SHT31;51008;51.504;11.548;2022-09-17T17:06:47;10.53;80.09
64599;SHT31;51008;51.504;11.548;2022-09-17T17:11:48;10.56;79.77
64599;SHT31;51008;51.504;11.548;2022-09-17T17:16:49;10.50;80.24
64599;SHT31;51008;51.504;11.548;2022-09-17T17:21:50;10.44;80.46
64599;SHT31;51008;51.504;11.548;2022-09-17T17:26:51;10.42;80.71
64599;SHT31;51008;51.504;11.548;2022-09-17T17:31:52;10.46;80.24
64599;SHT31;51008;51.504;11.548;2022-09-17T17:36:53;10.53;79.45
64599;SHT31;51008;51.504;11.548;2022-09-17T17:41:54;10.46;80.64
64599;SHT31;51008;51.504;11.548;2022-09-17T17:46:55;10.48;80.59
64599;SHT31;51008;51.504;11.548;2022-09-17T17:51:56;10.48;80.49
64599;SHT31;51008;51.504;11.548;2022-09-17T17:56:57;10.45;82.08
64599;SHT31;51008;51.504;11.548;2022-09-17T18:01:58;10.48;83.27
64599;SHT31;51008;51.504;11.548;2022-09-17T18:06:59;10.42;83.32
64599;SHT31;51008;51.504;11.548;2022-09-17T18:12:00;10.31;82.69
64599;SHT31;51008;51.504;11.548;2022-09-17T18:17:01;10.17;85.76
64599;SHT31;51008;51.504;11.548;2022-09-17T18:22:02;10.04;84.45
64599;SHT31;51008;51.504;11.548;2022-09-17T18:27:03;9.86;84.59
64599;SHT31;51008;51.504;11.548;2022-09-17T18:32:04;9.85;87.16
64599;SHT31;51008;51.504;11.548;2022-09-17T18:37:05;9.86;88.00
64599;SHT31;51008;51.504;11.548;2022-09-17T18:42:06;9.85;88.50
64599;SHT31;51008;51.504;11.548;2022-09-17T18:47:10;9.82;89.39
64599;SHT31;51008;51.504;11.548;2022-09-17T18:52:11;9.79;90.04
64599;SHT31;51008;51.504;11.548;2022-09-17T18:57:12;9.79;89.61
64599;SHT31;51008;51.504;11.548;2022-09-17T19:02:13;9.73;90.05
64599;SHT31;51008;51.504;11.548;2022-09-17T19:07:14;9.72;90.10
64599;SHT31;51008;51.504;11.548;2022-09-17T19:12:15;9.70;90.40
64599;SHT31;51008;51.504;11.548;2022-09-17T19:17:16;9.69;90.03
64599;SHT31;51008;51.504;11.548;2022-09-17T19:22:17;9.69;90.26
64599;SHT31;51008;51.504;11.548;2022-09-17T19:27:18;9.69;90.75
64599;SHT31;51008;51.504;11.548;2022-09-17T19:32:19;9.65;90.94
64599;SHT31;51008;51.504;11.548;2022-09-17T19:37:20;9.55;91.31
64599;SHT31;51008;51.504;11.548;2022-09-17T19:42:22;9.55;91.72
64599;SHT31;51008;51.504;11.548;2022-09-17T19:47:23;9.46;91.92
64599;SHT31;51008;51.504;11.548;2022-09-17T19:52:24;9.41;92.39
64599;SHT31;51008;51.504;11.548;2022-09-17T19:57:25;9.34;93.06
64599;SHT31;51008;51.504;11.548;2022-09-17T20:02:26;9.25;92.82
64599;SHT31;51008;51.504;11.548;2022-09-17T20:07:27;9.23;93.76
64599;SHT31;51008;51.504;11.548;2022-09-17T20:12:28;9.21;93.42
64599;SHT31;51008;51.504;11.548;2022-09-17T20:17:29;9.07;92.46
64599;SHT31;51008;51.504;11.548;2022-09-17T20:22:30;9.03;92.59
64599;SHT31;51008;51.504;11.548;2022-09-17T20:27:31;8.99;92.97
64599;SHT31;51008;51.504;11.548;2022-09-17T20:32:32;8.99;92.50
64599;SHT31;51008;51.504;11.548;2022-09-17T20:37:33;8.91;93.19
64599;SHT31;51008;51.504;11.548;2022-09-17T20:42:34;8.97;94.10
64599;SHT31;51008;51.504;11.548;2022-09-17T20:47:35;8.99;93.69
64599;SHT31;51008;51.504;11.548;2022-09-17T20:52:36;8.94;93.47
64599;SHT31;51008;51.504;11.548;2022-09-17T20:57:37;8.90;94.19
64599;SHT31;51008;51.504;11.548;2022-09-17T21:02:38;9.00;94.43
64599;SHT31;51008;51.504;11.548;2022-09-17T21:07:39;9.04;94.51
64599;SHT31;51008;51.504;11.548;2022-09-17T21:12:40;9.06;94.34
64599;SHT31;51008;51.504;11.548;2022-09-17T21:17:41;9.06;94.65
64599;SHT31;51008;51.504;11.548;2022-09-17T21:22:42;9.06;94.89
64599;SHT31;51008;51.504;11.548;2022-09-17T21:27:43;9.08;94.98
64599;SHT31;51008;51.504;11.548;2022-09-17T21:32:44;9.07;94.99
64599;SHT31;51008;51.504;11.548;2022-09-17T21:37:45;9.08;94.87
64599;SHT31;51008;51.504;11.548;2022-09-17T21:42:47;9.10;94.52
64599;SHT31;51008;51.504;11.548;2022-09-17T21:47:48;9.10;94.45
64599;SHT31;51008;51.504;11.548;2022-09-17T21:52:49;9.14;94.67
64599;SHT31;51008;51.504;11.548;2022-09-17T21:57:50;9.07;95.11
64599;SHT31;51008;51.504;11.548;2022-09-17T22:02:51;9.11;95.15
64599;SHT31;51008;51.504;11.548;2022-09-17T22:07:52;9.10;95.39
64599;SHT31;51008;51.504;11.548;2022-09-17T22:12:53;9.13;95.14
64599;SHT31;51008;51.504;11.548;2022-09-17T22:17:54;9.07;95.27
64599;SHT31;51008;51.504;11.548;2022-09-17T22:22:55;9.14;95.11
64599;SHT31;51008;51.504;11.548;2022-09-17T22:27:56;9.17;95.53
64599;SHT31;51008;51.504;11.548;2022-09-17T22:32:57;9.18;94.76
64599;SHT31;51008;51.504;11.548;2022-09-17T22:37:58;9.18;94.85
64599;SHT31;51008;51.504;11.548;2022-09-17T22:42:58;9.17;94.61
64599;SHT31;51008;51.504;11.548;2022-09-17T22:47:59;9.13;95.01
64599;SHT31;51008;51.504;11.548;2022-09-17T22:53:00;9.21;95.34
64599;SHT31;51008;51.504;11.548;2022-09-17T22:58:01;9.14;94.67
64599;SHT31;51008;51.504;11.548;2022-09-17T23:03:02;9.16;95.13
64599;SHT31;51008;51.504;11.548;2022-09-17T23:08:03;9.14;94.96
64599;SHT31;51008;51.504;11.548;2022-09-17T23:13:05;9.13;94.91
64599;SHT31;51008;51.504;11.548;2022-09-17T23:18:06;9.13;95.01
64599;SHT31;51008;51.504;11.548;2022-09-17T23:23:07;9.17;94.83
64599;SHT31;51008;51.504;11.548;2022-09-17T23:28:08;9.13;94.86
64599;SHT31;51008;51.504;11.548;2022-09-17T23:33:09;9.25;94.73
64599;SHT31;51008;51.504;11.548;2022-09-17T23:38:10;9.18;94.96
64599;SHT31;51008;51.504;11.548;2022-09-17T23:43:11;9.17;94.40
64599;SHT31;51008;51.504;11.548;2022-09-17T23:48:12;9.16;94.12
64599;SHT31;51008;51.504;11.548;2022-09-17T23:53:13;9.13;94.15
64599;SHT31;51008;51.504;11.548;2022-09-17T23:58:14;9.14;94.46
